sensor_id;sensor_type;location;lat;lon;timestamp;pressure;altitude;pressure_sealevel;temperature;humidity
31538;BME280;18147;51.952;6.146;2023-10-13T00:00:35;101236.75;;;17.27;100.00
31538;BME280;18147;51.952;6.146;2023-10-13T00:03:06;101220.59;;;17.27;100.00
31538;BME280;18147;51.952;6.146;2023-10-13T00:05:32;101228.81;;;17.25;100.00
31538;BME280;18147;51.952;6.146;2023-10-13T00:08:02;101237.44;;;17.19;100.00
31538;BME280;18147;51.952;6.146;2023-10-13T00:10:31;101233.50;;;17.23;100.00
31538;BME280;18147;51.952;6.146;2023-10-13T00:12:57;101218.25;;;17.13;100.00
31538;BME280;18147;51.952;6.146;2023-10-13T00:15:45;101230.19;;;17.20;100.00
31538;BME280;18147;51.952;6.146;2023-10-13T00:18:26;101225.34;;;17.14;100.00
31538;BME280;18147;51.952;6.146;2023-10-13T00:20:53;101232.44;;;17.15;100.00
31538;BME280;18147;51.952;6.146;2023-10-13T00:23:22;101226.78;;;17.18;100.00
31538;BME280;18147;51.952;6.146;2023-10-13T00:25:49;101223.81;;;17.21;100.00
31538;BME280;18147;51.952;6.146;2023-10-13T00:28:17;101225.00;;;17.07;100.00
31538;BME280;18147;51.952;6.146;2023-10-13T00:30:52;101228.88;;;17.14;100.00
31538;BME280;18147;51.952;6.146;2023-10-13T00:33:26;101228.75;;;17.16;100.00
31538;BME280;18147;51.952;6.146;2023-10-13T00:35:52;101215.25;;;17.16;100.00
31538;BME280;18147;51.952;6.146;2023-10-13T00:38:19;101214.63;;;17.23;100.00
31538;BME280;18147;51.952;6.146;2023-10-13T00:40:45;101201.78;;;17.16;100.00
31538;BME280;18147;51.952;6.146;2023-10-13T00:43:22;101197.25;;;17.16;100.00
31538;BME280;18147;51.952;6.146;2023-10-13T00:48:31;101207.53;;;17.22;100.00
31538;BME280;18147;51.952;6.146;2023-10-13T00:51:06;101196.47;;;17.25;100.00
31538;BME280;18147;51.952;6.146;2023-10-13T00:53:34;101193.53;;;17.28;100.00
31538;BME280;18147;51.952;6.146;2023-10-13T00:56:01;101185.69;;;17.25;100.00
31538;BME280;18147;51.952;6.146;2023-10-13T00:58:36;101173.53;;;17.31;100.00
31538;BME280;18147;51.952;6.146;2023-10-13T01:01:05;101178.34;;;17.27;100.00
31538;BME280;18147;51.952;6.146;2023-10-13T01:03:51;101174.38;;;17.31;100.00
31538;BME280;18147;51.952;6.146;2023-10-13T01:06:28;101171.97;;;17.28;100.00
31538;BME280;18147;51.952;6.146;2023-10-13T01:09:11;101170.81;;;17.31;100.00
31538;BME280;18147;51.952;6.146;2023-10-13T01:11:50;101170.13;;;17.29;100.00
31538;BME280;18147;51.952;6.146;2023-10-13T01:14:19;101164.59;;;17.30;100.00
31538;BME280;18147;51.952;6.146;2023-10-13T01:16:47;101164.19;;;17.35;100.00
31538;BME280;18147;51.952;6.146;2023-10-13T01:19:17;101170.56;;;17.34;100.00
31538;BME280;18147;51.952;6.146;2023-10-13T01:21:45;101159.78;;;17.34;100.00
31538;BME280;18147;51.952;6.146;2023-10-13T01:24:11;101150.00;;;17.33;100.00
31538;BME280;18147;51.952;6.146;2023-10-13T01:26:38;101150.78;;;17.24;100.00
31538;BME280;18147;51.952;6.146;2023-10-13T01:29:05;101145.13;;;17.27;100.00
31538;BME280;18147;51.952;6.146;2023-10-13T01:31:42;101145.59;;;17.32;100.00
31538;BME280;18147;51.952;6.146;2023-10-13T01:34:15;101151.66;;;17.24;100.00
31538;BME280;18147;51.952;6.146;2023-10-13T01:36:50;101149.66;;;17.26;100.00
31538;BME280;18147;51.952;6.146;2023-10-13T01:39:17;101137.50;;;17.32;100.00
31538;BME280;18147;51.952;6.146;2023-10-13T01:41:43;101134.94;;;17.30;100.00
31538;BME280;18147;51.952;6.146;2023-10-13T01:44:09;101127.84;;;17.29;100.00
31538;BME280;18147;51.952;6.146;2023-10-13T01:46:40;101126.00;;;17.30;100.00
31538;BME280;18147;51.952;6.146;2023-10-13T01:49:08;101117.50;;;17.34;100.00
31538;BME280;18147;51.952;6.146;2023-10-13T01:51:34;101119.03;;;17.27;100.00
31538;BME280;18147;51.952;6.146;2023-10-13T01:53:59;101104.28;;;17.31;100.00
31538;BME280;18147;51.952;6.146;2023-10-13T01:56:28;101109.38;;;17.25;100.00
31538;BME280;18147;51.952;6.146;2023-10-13T01:58:56;101106.97;;;17.31;100.00
31538;BME280;18147;51.952;6.146;2023-10-13T02:01:22;101100.03;;;17.29;100.00
31538;BME280;18147;51.952;6.146;2023-10-13T02:03:55;101096.03;;;17.23;100.00
31538;BME280;18147;51.952;6.146;2023-10-13T02:06:33;101085.25;;;17.23;100.00
31538;BME280;18147;51.952;6.146;2023-10-13T02:09:00;101085.66;;;17.19;100.00
31538;BME280;18147;51.952;6.146;2023-10-13T02:11:39;101084.81;;;17.18;100.00
31538;BME280;18147;51.952;6.146;2023-10-13T02:14:05;101081.97;;;17.20;100.00
31538;BME280;18147;51.952;6.146;2023-10-13T02:16:30;101077.72;;;17.17;100.00
31538;BME280;18147;51.952;6.146;2023-10-13T02:18:57;101072.97;;;17.09;100.00
31538;BME280;18147;51.952;6.146;2023-10-13T02:21:32;101072.84;;;17.11;100.00
31538;BME280;18147;51.952;6.146;2023-10-13T02:24:00;101071.00;;;17.12;100.00
31538;BME280;18147;51.952;6.146;2023-10-13T02:26:30;101065.34;;;17.15;100.00
31538;BME280;18147;51.952;6.146;2023-10-13T02:28:58;101065.34;;;17.15;100.00
31538;BME280;18147;51.952;6.146;2023-10-13T02:31:23;101063.72;;;17.02;100.00
31538;BME280;18147;51.952;6.146;2023-10-13T02:33:52;101057.66;;;17.10;100.00
31538;BME280;18147;51.952;6.146;2023-10-13T02:36:18;101050.88;;;17.16;100.00
31538;BME280;18147;51.952;6.146;2023-10-13T02:38:48;101049.19;;;17.15;100.00
31538;BME280;18147;51.952;6.146;2023-10-13T02:41:20;101042.34;;;17.11;100.00
31538;BME280;18147;51.952;6.146;2023-10-13T02:43:55;101055.09;;;17.08;100.00
31538;BME280;18147;51.952;6.146;2023-10-13T02:46:22;101047.03;;;17.08;100.00
31538;BME280;18147;51.952;6.146;2023-10-13T02:48:49;101034.41;;;17.09;100.00
31538;BME280;18147;51.952;6.146;2023-10-13T02:51:23;101033.84;;;17.15;100.00
31538;BME280;18147;51.952;6.146;2023-10-13T02:53:57;101031.72;;;17.09;100.00
31538;BME280;18147;51.952;6.146;2023-10-13T02:56:28;101029.19;;;17.17;100.00
31538;BME280;18147;51.952;6.146;2023-10-13T02:58:54;101030.75;;;17.20;100.00
31538;BME280;18147;51.952;6.146;2023-10-13T03:01:31;101023.38;;;17.12;100.00
31538;BME280;18147;51.952;6.146;2023-10-13T03:04:00;101027.88;;;17.12;100.00
31538;BME280;18147;51.952;6.146;2023-10-13T03:06:27;101019.38;;;17.16;100.00
31538;BME280;18147;51.952;6.146;2023-10-13T03:09:01;101023.78;;;17.07;100.00
31538;BME280;18147;51.952;6.146;2023-10-13T03:11:46;101024.91;;;17.15;100.00
31538;BME280;18147;51.952;6.146;2023-10-13T03:14:20;101015.09;;;17.04;100.00
31538;BME280;18147;51.952;6.146;2023-10-13T03:16:55;101007.44;;;17.09;100.00
31538;BME280;18147;51.952;6.146;2023-10-13T03:19:27;101004.75;;;17.09;100.00
31538;BME280;18147;51.952;6.146;2023-10-13T03:21:59;100994.63;;;17.01;100.00
31538;BME280;18147;51.952;6.146;2023-10-13T03:24:34;100991.88;;;17.13;100.00
31538;BME280;18147;51.952;6.146;2023-10-13T03:27:01;100982.22;;;17.10;100.00
31538;BME280;18147;51.952;6.146;2023-10-13T03:29:39;100976.97;;;17.08;100.00
31538;BME280;18147;51.952;6.146;2023-10-13T03:32:12;100970.16;;;17.14;100.00
31538;BME280;18147;51.952;6.146;2023-10-13T03:34:39;100976.81;;;17.10;100.00
31538;BME280;18147;51.952;6.146;2023-10-13T03:37:21;100967.28;;;17.06;100.00
31538;BME280;18147;51.952;6.146;2023-10-13T03:40:10;100964.94;;;17.13;100.00
31538;BME280;18147;51.952;6.146;2023-10-13T03:42:55;100966.59;;;17.04;100.00
31538;BME280;18147;51.952;6.146;2023-10-13T03:45:41;100958.81;;;17.11;100.00
31538;BME280;18147;51.952;6.146;2023-10-13T03:48:13;100956.97;;;17.11;100.00
31538;BME280;18147;51.952;6.146;2023-10-13T03:51:01;100958.13;;;17.18;100.00
31538;BME280;18147;51.952;6.146;2023-10-13T03:53:37;100952.31;;;17.13;100.00
31538;BME280;18147;51.952;6.146;2023-10-13T03:56:18;100952.75;;;17.18;100.00
31538;BME280;18147;51.952;6.146;2023-10-13T03:58:54;100945.91;;;17.14;100.00
31538;BME280;18147;51.952;6.146;2023-10-13T04:01:23;100934.56;;;17.11;100.00
31538;BME280;18147;51.952;6.146;2023-10-13T04:04:13;100927.91;;;17.15;100.00
31538;BME280;18147;51.952;6.146;2023-10-13T04:06:55;100923.66;;;17.12;100.00
31538;BME280;18147;51.952;6.146;2023-10-13T04:09:39;100921.22;;;17.09;100.00
31538;BME280;18147;51.952;6.146;2023-10-13T04:12:14;100918.38;;;17.11;100.00
31538;BME280;18147;51.952;6.146;2023-10-13T04:15:06;100918.38;;;17.11;100.00
31538;BME280;18147;51.952;6.146;2023-10-13T04:17:32;100915.00;;;17.08;100.00
31538;BME280;18147;51.952;6.146;2023-10-13T04:20:06;100904.66;;;17.14;100.00
31538;BME280;18147;51.952;6.146;2023-10-13T04:22:32;100897.41;;;17.14;100.00
31538;BME280;18147;51.952;6.146;2023-10-13T04:28:05;100873.44;;;17.11;100.00
31538;BME280;18147;51.952;6.146;2023-10-13T04:30:47;100848.31;;;17.11;100.00
31538;BME280;18147;51.952;6.146;2023-10-13T04:33:29;100847.34;;;17.02;100.00
31538;BME280;18147;51.952;6.146;2023-10-13T04:38:48;100830.03;;;17.04;100.00
31538;BME280;18147;51.952;6.146;2023-10-13T04:41:43;100828.03;;;17.06;100.00
31538;BME280;18147;51.952;6.146;2023-10-13T04:44:23;100834.84;;;17.11;100.00
31538;BME280;18147;51.952;6.146;2023-10-13T04:47:09;100840.66;;;17.06;100.00
31538;BME280;18147;51.952;6.146;2023-10-13T04:49:43;100827.88;;;16.89;100.00
31538;BME280;18147;51.952;6.146;2023-10-13T04:52:09;100838.69;;;16.98;100.00
31538;BME280;18147;51.952;6.146;2023-10-13T04:54:36;100827.91;;;16.98;100.00
31538;BME280;18147;51.952;6.146;2023-10-13T04:57:20;100822.38;;;17.09;100.00
31538;BME280;18147;51.952;6.146;2023-10-13T04:59:57;100800.56;;;17.22;100.00
31538;BME280;18147;51.952;6.146;2023-10-13T05:02:39;100790.06;;;17.19;100.00
31538;BME280;18147;51.952;6.146;2023-10-13T05:05:08;100784.50;;;17.11;100.00
31538;BME280;18147;51.952;6.146;2023-10-13T05:07:44;100802.53;;;17.20;100.00
31538;BME280;18147;51.952;6.146;2023-10-13T05:10:28;100800.56;;;17.13;100.00
31538;BME280;18147;51.952;6.146;2023-10-13T05:13:13;100795.28;;;17.21;100.00
31538;BME280;18147;51.952;6.146;2023-10-13T05:15:57;100802.97;;;17.25;100.00
31538;BME280;18147;51.952;6.146;2023-10-13T05:18:41;100806.38;;;17.27;100.00
31538;BME280;18147;51.952;6.146;2023-10-13T05:21:26;100803.13;;;17.33;100.00
31538;BME280;18147;51.952;6.146;2023-10-13T05:24:10;100811.19;;;17.43;100.00
31538;BME280;18147;51.952;6.146;2023-10-13T05:26:54;100802.53;;;17.40;100.00
31538;BME280;18147;51.952;6.146;2023-10-13T05:29:39;100806.22;;;17.39;100.00
31538;BME280;18147;51.952;6.146;2023-10-13T05:32:24;100804.53;;;17.47;100.00
31538;BME280;18147;51.952;6.146;2023-10-13T05:35:08;100808.63;;;17.51;100.00
31538;BME280;18147;51.952;6.146;2023-10-13T05:37:52;100814.44;;;17.47;100.00
31538;BME280;18147;51.952;6.146;2023-10-13T05:40:36;100820.69;;;17.57;100.00
31538;BME280;18147;51.952;6.146;2023-10-13T05:43:20;100821.13;;;17.62;100.00
31538;BME280;18147;51.952;6.146;2023-10-13T05:46:05;100831.19;;;17.70;100.00
31538;BME280;18147;51.952;6.146;2023-10-13T05:49:02;100813.75;;;17.64;100.00
31538;BME280;18147;51.952;6.146;2023-10-13T05:51:36;100811.63;;;17.68;100.00
31538;BME280;18147;51.952;6.146;2023-10-13T05:54:05;100810.31;;;17.72;100.00
31538;BME280;18147;51.952;6.146;2023-10-13T05:59:24;100797.69;;;17.72;100.00
31538;BME280;18147;51.952;6.146;2023-10-13T06:02:08;100786.91;;;17.72;100.00
31538;BME280;18147;51.952;6.146;2023-10-13T06:04:53;100787.19;;;17.69;100.00
31538;BME280;18147;51.952;6.146;2023-10-13T06:07:37;100787.47;;;17.76;100.00
31538;BME280;18147;51.952;6.146;2023-10-13T06:10:21;100785.63;;;17.76;100.00
31538;BME280;18147;51.952;6.146;2023-10-13T06:13:06;100790.06;;;17.77;100.00
31538;BME280;18147;51.952;6.146;2023-10-13T06:15:51;100780.22;;;17.76;100.00
31538;BME280;18147;51.952;6.146;2023-10-13T06:18:35;100788.22;;;17.78;100.00
31538;BME280;18147;51.952;6.146;2023-10-13T06:21:20;100777.41;;;17.78;100.00
31538;BME280;18147;51.952;6.146;2023-10-13T06:24:05;100770.72;;;17.82;100.00
31538;BME280;18147;51.952;6.146;2023-10-13T06:26:50;100765.78;;;17.77;100.00
31538;BME280;18147;51.952;6.146;2023-10-13T06:29:34;100780.38;;;17.84;100.00
31538;BME280;18147;51.952;6.146;2023-10-13T06:31:59;100788.19;;;17.88;100.00
31538;BME280;18147;51.952;6.146;2023-10-13T06:34:27;100787.59;;;17.94;100.00
31538;BME280;18147;51.952;6.146;2023-10-13T06:37:05;100780.63;;;17.91;100.00
31538;BME280;18147;51.952;6.146;2023-10-13T06:39:50;100774.94;;;17.94;100.00
31538;BME280;18147;51.952;6.146;2023-10-13T06:42:16;100770.81;;;18.00;100.00
31538;BME280;18147;51.952;6.146;2023-10-13T06:44:45;100766.97;;;18.02;100.00
31538;BME280;18147;51.952;6.146;2023-10-13T06:47:11;100753.97;;;17.88;100.00
31538;BME280;18147;51.952;6.146;2023-10-13T06:49:39;100745.94;;;18.06;100.00
31538;BME280;18147;51.952;6.146;2023-10-13T06:52:07;100741.38;;;18.06;100.00
31538;BME280;18147;51.952;6.146;2023-10-13T06:54:33;100756.69;;;18.16;100.00
31538;BME280;18147;51.952;6.146;2023-10-13T06:57:00;100740.06;;;18.20;100.00
31538;BME280;18147;51.952;6.146;2023-10-13T06:59:29;100733.25;;;18.16;100.00
31538;BME280;18147;51.952;6.146;2023-10-13T07:01:58;100725.88;;;18.18;100.00
31538;BME280;18147;51.952;6.146;2023-10-13T07:04:29;100728.25;;;18.21;100.00
31538;BME280;18147;51.952;6.146;2023-10-13T07:06:55;100729.00;;;18.14;100.00
31538;BME280;18147;51.952;6.146;2023-10-13T07:09:20;100721.00;;;18.22;100.00
31538;BME280;18147;51.952;6.146;2023-10-13T07:12:01;100706.13;;;18.18;100.00
31538;BME280;18147;51.952;6.146;2023-10-13T07:14:28;100716.59;;;18.21;100.00
31538;BME280;18147;51.952;6.146;2023-10-13T07:17:01;100712.06;;;18.21;100.00
31538;BME280;18147;51.952;6.146;2023-10-13T07:19:27;100709.06;;;18.24;100.00
31538;BME280;18147;51.952;6.146;2023-10-13T07:22:01;100700.97;;;18.24;100.00
31538;BME280;18147;51.952;6.146;2023-10-13T07:24:47;100709.91;;;18.25;100.00
31538;BME280;18147;51.952;6.146;2023-10-13T07:27:19;100691.00;;;18.25;100.00
31538;BME280;18147;51.952;6.146;2023-10-13T07:29:53;100684.16;;;18.30;100.00
31538;BME280;18147;51.952;6.146;2023-10-13T07:32:25;100683.38;;;18.20;100.00
31538;BME280;18147;51.952;6.146;2023-10-13T07:34:54;100680.06;;;18.26;100.00
31538;BME280;18147;51.952;6.146;2023-10-13T07:37:23;100667.72;;;18.24;100.00
31538;BME280;18147;51.952;6.146;2023-10-13T07:39:55;100665.03;;;18.24;100.00
31538;BME280;18147;51.952;6.146;2023-10-13T07:42:24;100653.78;;;18.28;100.00
31538;BME280;18147;51.952;6.146;2023-10-13T07:44:56;100641.75;;;18.23;100.00
31538;BME280;18147;51.952;6.146;2023-10-13T07:47:21;100637.97;;;18.33;100.00
31538;BME280;18147;51.952;6.146;2023-10-13T07:49:49;100608.50;;;18.40;100.00
31538;BME280;18147;51.952;6.146;2023-10-13T07:52:16;100620.53;;;18.28;100.00
31538;BME280;18147;51.952;6.146;2023-10-13T07:54:45;100617.38;;;18.32;100.00
31538;BME280;18147;51.952;6.146;2023-10-13T07:57:30;100600.00;;;18.35;100.00
31538;BME280;18147;51.952;6.146;2023-10-13T07:59:56;100596.94;;;18.30;100.00
31538;BME280;18147;51.952;6.146;2023-10-13T08:02:37;100593.69;;;18.44;100.00
31538;BME280;18147;51.952;6.146;2023-10-13T08:05:15;100585.75;;;18.43;100.00
31538;BME280;18147;51.952;6.146;2023-10-13T08:08:05;100585.59;;;18.44;100.00
31538;BME280;18147;51.952;6.146;2023-10-13T08:10:39;100580.75;;;18.48;100.00
31538;BME280;18147;51.952;6.146;2023-10-13T08:13:07;100587.38;;;18.53;100.00
31538;BME280;18147;51.952;6.146;2023-10-13T08:15:40;100573.31;;;18.50;100.00
31538;BME280;18147;51.952;6.146;2023-10-13T08:18:12;100568.84;;;18.58;100.00
31538;BME280;18147;51.952;6.146;2023-10-13T08:20:45;100562.44;;;18.59;100.00
31538;BME280;18147;51.952;6.146;2023-10-13T08:23:10;100565.44;;;18.56;100.00
31538;BME280;18147;51.952;6.146;2023-10-13T08:25:40;100548.09;;;18.59;100.00
31538;BME280;18147;51.952;6.146;2023-10-13T08:28:24;100569.22;;;18.63;100.00
31538;BME280;18147;51.952;6.146;2023-10-13T08:31:07;100566.09;;;18.68;100.00
31538;BME280;18147;51.952;6.146;2023-10-13T08:33:50;100548.53;;;18.72;100.00
31538;BME280;18147;51.952;6.146;2023-10-13T08:36:23;100538.88;;;18.87;100.00
31538;BME280;18147;51.952;6.146;2023-10-13T08:38:56;100541.69;;;19.04;100.00
31538;BME280;18147;51.952;6.146;2023-10-13T08:41:24;100537.69;;;19.08;100.00
31538;BME280;18147;51.952;6.146;2023-10-13T08:43:55;100524.63;;;19.37;100.00
31538;BME280;18147;51.952;6.146;2023-10-13T08:46:30;100514.03;;;19.44;100.00
31538;BME280;18147;51.952;6.146;2023-10-13T08:49:05;100511.03;;;19.55;100.00
31538;BME280;18147;51.952;6.146;2023-10-13T08:51:41;100498.72;;;19.61;100.00
31538;BME280;18147;51.952;6.146;2023-10-13T08:54:14;100490.28;;;19.64;100.00
31538;BME280;18147;51.952;6.146;2023-10-13T08:57:00;100490.50;;;19.79;100.00
31538;BME280;18147;51.952;6.146;2023-10-13T08:59:46;100475.97;;;19.80;100.00
31538;BME280;18147;51.952;6.146;2023-10-13T09:02:21;100471.91;;;19.84;100.00
31538;BME280;18147;51.952;6.146;2023-10-13T09:05:09;100460.25;;;19.91;100.00
31538;BME280;18147;51.952;6.146;2023-10-13T09:07:54;100450.25;;;19.92;100.00
31538;BME280;18147;51.952;6.146;2023-10-13T09:10:24;100442.66;;;19.96;100.00
31538;BME280;18147;51.952;6.146;2023-10-13T09:12:58;100430.13;;;20.11;100.00
31538;BME280;18147;51.952;6.146;2023-10-13T09:15:30;100417.13;;;20.14;100.00
31538;BME280;18147;51.952;6.146;2023-10-13T09:18:34;100425.72;;;20.26;100.00
31538;BME280;18147;51.952;6.146;2023-10-13T09:21:12;100423.88;;;20.27;100.00
31538;BME280;18147;51.952;6.146;2023-10-13T09:23:56;100420.16;;;20.11;100.00
31538;BME280;18147;51.952;6.146;2023-10-13T09:26:42;100418.44;;;20.27;100.00
31538;BME280;18147;51.952;6.146;2023-10-13T09:29:19;100422.00;;;20.35;100.00
31538;BME280;18147;51.952;6.146;2023-10-13T09:32:03;100414.06;;;20.50;100.00
31538;BME280;18147;51.952;6.146;2023-10-13T09:34:29;100413.56;;;20.55;100.00
31538;BME280;18147;51.952;6.146;2023-10-13T09:36:59;100414.56;;;20.54;100.00
31538;BME280;18147;51.952;6.146;2023-10-13T09:39:25;100410.47;;;20.41;100.00
31538;BME280;18147;51.952;6.146;2023-10-13T09:42:11;100414.25;;;20.24;100.00
31538;BME280;18147;51.952;6.146;2023-10-13T09:44:41;100405.25;;;20.07;100.00
31538;BME280;18147;51.952;6.146;2023-10-13T09:47:10;100397.84;;;20.09;100.00
31538;BME280;18147;51.952;6.146;2023-10-13T09:49:45;100393.63;;;19.99;100.00
31538;BME280;18147;51.952;6.146;2023-10-13T09:52:16;100388.69;;;20.02;100.00
31538;BME280;18147;51.952;6.146;2023-10-13T09:54:53;100386.50;;;20.06;100.00
31538;BME280;18147;51.952;6.146;2023-10-13T09:57:28;100374.81;;;20.05;100.00
31538;BME280;18147;51.952;6.146;2023-10-13T10:00:20;100377.53;;;20.13;100.00
31538;BME280;18147;51.952;6.146;2023-10-13T10:03:06;100373.28;;;20.19;100.00
31538;BME280;18147;51.952;6.146;2023-10-13T10:05:57;100374.66;;;20.15;100.00
31538;BME280;18147;51.952;6.146;2023-10-13T10:08:31;100383.59;;;20.15;100.00
31538;BME280;18147;51.952;6.146;2023-10-13T10:17:14;100365.31;;;20.50;100.00
31538;BME280;18147;51.952;6.146;2023-10-13T10:19:50;100358.69;;;20.44;100.00
31538;BME280;18147;51.952;6.146;2023-10-13T10:24:59;100345.13;;;20.53;100.00
31538;BME280;18147;51.952;6.146;2023-10-13T10:27:30;100343.28;;;20.37;100.00
31538;BME280;18147;51.952;6.146;2023-10-13T10:29:56;100347.97;;;20.67;100.00
31538;BME280;18147;51.952;6.146;2023-10-13T10:32:38;100340.53;;;20.69;100.00
31538;BME280;18147;51.952;6.146;2023-10-13T10:35:10;100336.28;;;20.67;100.00
31538;BME280;18147;51.952;6.146;2023-10-13T10:37:46;100327.69;;;20.63;100.00
31538;BME280;18147;51.952;6.146;2023-10-13T10:40:16;100321.19;;;20.73;100.00
31538;BME280;18147;51.952;6.146;2023-10-13T10:43:00;100325.00;;;20.47;100.00
31538;BME280;18147;51.952;6.146;2023-10-13T10:45:35;100317.69;;;20.64;100.00
31538;BME280;18147;51.952;6.146;2023-10-13T10:48:00;100316.53;;;20.58;100.00
31538;BME280;18147;51.952;6.146;2023-10-13T10:50:42;100313.13;;;20.56;100.00
31538;BME280;18147;51.952;6.146;2023-10-13T10:53:08;100304.97;;;20.64;100.00
31538;BME280;18147;51.952;6.146;2023-10-13T10:55:37;100302.28;;;20.64;100.00
31538;BME280;18147;51.952;6.146;2023-10-13T10:58:03;100290.69;;;20.79;100.00
31538;BME280;18147;51.952;6.146;2023-10-13T11:00:32;100277.16;;;20.79;100.00
31538;BME280;18147;51.952;6.146;2023-10-13T11:03:15;100275.59;;;20.84;100.00
31538;BME280;18147;51.952;6.146;2023-10-13T11:05:47;100263.53;;;20.87;100.00
31538;BME280;18147;51.952;6.146;2023-10-13T11:08:25;100269.72;;;21.04;100.00
31538;BME280;18147;51.952;6.146;2023-10-13T11:11:03;100251.34;;;21.14;100.00
31538;BME280;18147;51.952;6.146;2023-10-13T11:13:46;100263.03;;;21.14;100.00
31538;BME280;18147;51.952;6.146;2023-10-13T11:16:21;100259.59;;;21.20;100.00
31538;BME280;18147;51.952;6.146;2023-10-13T11:19:00;100244.59;;;21.33;100.00
31538;BME280;18147;51.952;6.146;2023-10-13T11:21:29;100255.06;;;21.44;100.00
31538;BME280;18147;51.952;6.146;2023-10-13T11:23:58;100247.72;;;21.21;100.00
31538;BME280;18147;51.952;6.146;2023-10-13T11:26:36;100249.88;;;21.03;100.00
31538;BME280;18147;51.952;6.146;2023-10-13T11:29:17;100261.31;;;21.13;100.00
31538;BME280;18147;51.952;6.146;2023-10-13T11:31:48;100259.09;;;21.17;100.00
31538;BME280;18147;51.952;6.146;2023-10-13T11:34:24;100252.66;;;20.95;100.00
31538;BME280;18147;51.952;6.146;2023-10-13T11:36:51;100244.41;;;20.88;100.00
31538;BME280;18147;51.952;6.146;2023-10-13T11:39:17;100251.19;;;20.84;100.00
31538;BME280;18147;51.952;6.146;2023-10-13T11:41:47;100250.88;;;20.79;100.00
31538;BME280;18147;51.952;6.146;2023-10-13T11:44:19;100245.53;;;20.63;100.00
31538;BME280;18147;51.952;6.146;2023-10-13T11:46:45;100234.31;;;20.74;100.00
31538;BME280;18147;51.952;6.146;2023-10-13T11:49:13;100223.03;;;20.93;100.00
31538;BME280;18147;51.952;6.146;2023-10-13T11:51:40;100228.91;;;20.97;100.00
31538;BME280;18147;51.952;6.146;2023-10-13T11:54:14;100226.50;;;21.02;100.00
31538;BME280;18147;51.952;6.146;2023-10-13T11:56:44;100220.94;;;21.18;100.00
31538;BME280;18147;51.952;6.146;2023-10-13T11:59:10;100213.94;;;21.32;100.00
31538;BME280;18147;51.952;6.146;2023-10-13T12:01:50;100202.25;;;21.32;100.00
31538;BME280;18147;51.952;6.146;2023-10-13T12:04:35;100186.03;;;21.24;100.00
31538;BME280;18147;51.952;6.146;2023-10-13T12:07:20;100167.75;;;21.17;100.00
31538;BME280;18147;51.952;6.146;2023-10-13T12:09:48;100198.34;;;21.34;100.00
31538;BME280;18147;51.952;6.146;2023-10-13T12:12:19;100191.97;;;21.42;100.00
31538;BME280;18147;51.952;6.146;2023-10-13T12:14:45;100180.03;;;21.51;100.00
31538;BME280;18147;51.952;6.146;2023-10-13T12:17:28;100181.81;;;21.73;100.00
31538;BME280;18147;51.952;6.146;2023-10-13T12:19:57;100162.38;;;21.85;100.00
31538;BME280;18147;51.952;6.146;2023-10-13T12:22:24;100173.88;;;21.87;100.00
31538;BME280;18147;51.952;6.146;2023-10-13T12:24:54;100159.75;;;22.06;100.00
31538;BME280;18147;51.952;6.146;2023-10-13T12:27:20;100160.59;;;22.07;100.00
31538;BME280;18147;51.952;6.146;2023-10-13T12:29:50;100155.16;;;22.07;100.00
31538;BME280;18147;51.952;6.146;2023-10-13T12:34:47;100165.81;;;22.23;100.00
31538;BME280;18147;51.952;6.146;2023-10-13T12:37:32;100159.38;;;22.09;100.00
31538;BME280;18147;51.952;6.146;2023-10-13T12:40:12;100162.94;;;22.25;100.00
31538;BME280;18147;51.952;6.146;2023-10-13T12:42:57;100164.25;;;22.14;100.00
31538;BME280;18147;51.952;6.146;2023-10-13T12:45:46;100156.00;;;22.07;100.00
31538;BME280;18147;51.952;6.146;2023-10-13T12:48:31;100165.38;;;22.05;100.00
31538;BME280;18147;51.952;6.146;2023-10-13T12:51:16;100158.81;;;22.14;100.00
31538;BME280;18147;51.952;6.146;2023-10-13T12:53:52;100163.13;;;22.23;100.00
31538;BME280;18147;51.952;6.146;2023-10-13T12:56:19;100150.56;;;22.22;100.00
31538;BME280;18147;51.952;6.146;2023-10-13T12:58:52;100156.81;;;22.08;100.00
31538;BME280;18147;51.952;6.146;2023-10-13T13:01:21;100154.69;;;22.03;100.00
31538;BME280;18147;51.952;6.146;2023-10-13T13:03:50;100150.84;;;21.97;100.00
31538;BME280;18147;51.952;6.146;2023-10-13T13:06:17;100149.25;;;21.88;100.00
31538;BME280;18147;51.952;6.146;2023-10-13T13:08:43;100150.75;;;21.91;100.00
31538;BME280;18147;51.952;6.146;2023-10-13T13:11:10;100150.94;;;22.04;100.00
31538;BME280;18147;51.952;6.146;2023-10-13T13:13:36;100150.03;;;22.12;100.00
31538;BME280;18147;51.952;6.146;2023-10-13T13:16:02;100151.41;;;22.08;100.00
31538;BME280;18147;51.952;6.146;2023-10-13T13:18:28;100146.94;;;22.15;100.00
31538;BME280;18147;51.952;6.146;2023-10-13T13:20:54;100146.94;;;22.15;100.00
31538;BME280;18147;51.952;6.146;2023-10-13T13:23:20;100141.84;;;22.27;100.00
31538;BME280;18147;51.952;6.146;2023-10-13T13:25:46;100148.06;;;22.20;100.00
31538;BME280;18147;51.952;6.146;2023-10-13T13:28:12;100148.50;;;22.09;100.00
31538;BME280;18147;51.952;6.146;2023-10-13T13:30:41;100148.97;;;21.83;100.00
31538;BME280;18147;51.952;6.146;2023-10-13T13:33:06;100141.09;;;21.88;100.00
31538;BME280;18147;51.952;6.146;2023-10-13T13:35:40;100142.63;;;21.91;100.00
31538;BME280;18147;51.952;6.146;2023-10-13T13:38:09;100142.25;;;21.94;100.00